Time;durP1;ratioP1;P1;durP2;ratioP2;P2;SDS_P1;SDS_P2;PMS_P1;PMS_P2;Temp;Humidity;BMP_temperature;BMP_pressure;BME280_temperature;BME280_humidity;BME280_pressure;Samples;Min_cycle;Max_cycle;Signal;HPM_P1;HPM_P2
2022/02/05 00:00:03;;;;;;;0.70;0.70;;;5.40;99.90;;;;;;5014225;28;20210;-74
2022/02/05 00:02:16;;;;;;;0.57;0.57;;;5.30;99.90;;;;;;5014273;28;20210;-75
2022/02/05 00:04:44;;;;;;;0.80;0.45;;;5.30;99.90;;;;;;5013794;28;20162;-73
2022/02/05 00:07:11;;;;;;;0.60;0.60;;;5.20;99.90;;;;;;5013826;28;20155;-76
2022/02/05 00:41:47;;;;;;;1.42;0.80;;;4.80;99.90;;;;;;5017268;28;20198;-74
2022/02/05 00:44:12;;;;;;;0.70;0.70;;;4.80;99.90;;;;;;5017425;28;20257;-75
2022/02/05 00:46:40;;;;;;;4.43;1.53;;;4.80;99.90;;;;;;5016986;28;20662;-77
2022/02/05 00:49:06;;;;;;;0.90;0.90;;;4.70;99.90;;;;;;5016527;28;20273;-74
2022/02/05 00:59:11;;;;;;;1.17;0.95;;;4.40;99.90;;;;;;5016351;28;20194;-74
2022/02/05 01:01:36;;;;;;;0.85;0.85;;;4.30;99.90;;;;;;5017219;28;20207;-74
2022/02/05 01:04:03;;;;;;;0.60;0.57;;;4.20;99.90;;;;;;5017586;28;20557;-75
2022/02/05 01:06:29;;;;;;;0.82;0.82;;;4.10;99.90;;;;;;5016627;28;20182;-76
2022/02/05 01:08:55;;;;;;;1.27;1.17;;;4.10;99.90;;;;;;5016319;28;20241;-77
2022/02/05 01:11:20;;;;;;;0.83;0.83;;;4.00;99.90;;;;;;5016649;28;20245;-76
2022/02/05 01:13:46;;;;;;;0.83;0.83;;;3.90;99.90;;;;;;5015206;28;20414;-76
2022/02/05 01:16:23;;;;;;;0.80;0.80;;;3.80;99.90;;;;;;5015175;28;20214;-74
2022/02/05 01:18:49;;;;;;;0.80;0.80;;;3.70;99.90;;;;;;5016026;28;20192;-74
2022/02/05 01:21:33;;;;;;;0.60;0.60;;;3.70;99.90;;;;;;5016269;28;20194;-73
2022/02/05 01:24:03;;;;;;;0.43;0.43;;;3.60;99.90;;;;;;5016448;28;20401;-74
2022/02/05 01:26:38;;;;;;;0.63;0.60;;;3.60;99.90;;;;;;5016298;28;20170;-74
2022/02/05 01:29:20;;;;;;;1.75;0.90;;;3.50;99.90;;;;;;5015865;28;20234;-74
2022/02/05 01:31:55;;;;;;;0.70;0.70;;;3.40;99.90;;;;;;5016470;28;20242;-74
2022/02/05 01:34:31;;;;;;;1.20;1.10;;;3.30;99.90;;;;;;5015937;28;20202;-75
2022/02/05 01:50:52;;;;;;;1.30;1.20;;;3.10;99.90;;;;;;5015472;28;20194;-75
2022/02/05 01:53:32;;;;;;;0.77;0.70;;;3.00;99.90;;;;;;5015341;28;20542;-75
2022/02/05 02:12:10;;;;;;;0.50;0.50;;;2.60;99.90;;;;;;5015368;28;20201;-77
2022/02/05 02:19:51;;;;;;;0.68;0.68;;;2.50;99.90;;;;;;5014735;28;20187;-73
2022/02/05 02:23:07;;;;;;;2.72;1.40;;;2.50;99.90;;;;;;5013914;28;20214;-75
2022/02/05 02:27:51;;;;;;;1.65;0.90;;;2.50;99.90;;;;;;5014916;28;20170;-75
2022/02/05 02:30:21;;;;;;;1.20;0.90;;;2.50;99.90;;;;;;5014844;28;20186;-75
2022/02/05 02:32:53;;;;;;;1.88;0.63;;;2.40;99.90;;;;;;5014842;28;20159;-73
2022/02/05 02:35:24;;;;;;;0.50;0.50;;;2.40;99.90;;;;;;5013772;28;20185;-73
2022/02/05 02:42:46;;;;;;;0.50;0.50;;;2.40;99.90;;;;;;5014888;28;20178;-74
2022/02/05 02:45:12;;;;;;;1.10;1.00;;;2.40;99.90;;;;;;5014749;28;20163;-74
2022/02/05 02:47:42;;;;;;;0.63;0.63;;;2.40;99.90;;;;;;5014475;28;20174;-75
2022/02/05 02:50:32;;;;;;;1.02;0.95;;;2.40;99.90;;;;;;5014311;28;20197;-74
2022/02/05 02:58:28;;;;;;;0.77;0.77;;;2.40;99.90;;;;;;5014048;28;20228;-74
2022/02/05 03:00:57;;;;;;;0.70;0.68;;;2.30;99.90;;;;;;5029092;28;20202;-74
2022/02/05 03:03:23;;;;;;;0.95;0.95;;;2.40;99.90;;;;;;5014459;28;20628;-74
2022/02/05 03:05:48;;;;;;;2.10;1.73;;;2.40;99.90;;;;;;5014367;28;20298;-74
2022/02/05 03:08:14;;;;;;;1.00;1.00;;;2.40;99.90;;;;;;5012815;28;20437;-74
2022/02/05 03:10:40;;;;;;;0.87;0.87;;;2.40;99.90;;;;;;5014231;28;20191;-73
2022/02/05 03:13:06;;;;;;;1.00;1.00;;;2.30;99.90;;;;;;5014268;28;20946;-74
2022/02/05 03:15:37;;;;;;;0.82;0.82;;;2.30;99.90;;;;;;5013041;28;20179;-74
2022/02/05 03:18:08;;;;;;;0.60;0.50;;;2.30;99.90;;;;;;5013930;28;20585;-75
2022/02/05 03:20:34;;;;;;;1.13;1.02;;;2.30;99.90;;;;;;5014068;28;20211;-73
2022/02/05 03:23:01;;;;;;;1.43;1.33;;;2.30;99.90;;;;;;5012709;28;20629;-73
2022/02/05 03:25:31;;;;;;;0.40;0.40;;;2.30;99.90;;;;;;5014159;28;20163;-74
2022/02/05 03:27:58;;;;;;;2.35;1.60;;;2.30;99.90;;;;;;5013573;28;20163;-74
2022/02/05 03:30:25;;;;;;;0.60;0.60;;;2.20;99.90;;;;;;5012497;28;20665;-74
2022/02/05 03:32:50;;;;;;;1.45;1.45;;;2.20;99.90;;;;;;5013857;28;20173;-73
2022/02/05 03:35:16;;;;;;;1.00;1.00;;;2.20;99.90;;;;;;5014193;28;20193;-74
2022/02/05 03:37:42;;;;;;;1.00;1.00;;;2.10;99.90;;;;;;5013562;28;20179;-75
2022/02/05 03:40:09;;;;;;;1.00;0.98;;;2.10;99.90;;;;;;5013726;28;20476;-74
2022/02/05 03:42:35;;;;;;;1.00;1.00;;;2.10;99.90;;;;;;5013749;28;20289;-74
2022/02/05 03:45:01;;;;;;;0.82;0.77;;;2.10;99.90;;;;;;5013678;28;20175;-74
2022/02/05 03:47:31;;;;;;;1.30;1.30;;;2.10;99.90;;;;;;5014201;28;20178;-74
2022/02/05 03:49:57;;;;;;;2.47;1.98;;;2.10;99.90;;;;;;5013506;28;20196;-74
2022/02/05 03:52:23;;;;;;;0.68;0.68;;;2.20;99.90;;;;;;5013624;28;20186;-74
2022/02/05 03:54:48;;;;;;;0.60;0.60;;;2.20;99.90;;;;;;5013719;28;20575;-74
2022/02/05 03:57:14;;;;;;;3.57;1.07;;;2.20;99.90;;;;;;5012381;28;20171;-73
2022/02/05 03:59:40;;;;;;;0.93;0.93;;;2.20;99.90;;;;;;5013286;28;20195;-73
2022/02/05 04:02:06;;;;;;;1.60;1.50;;;2.20;99.90;;;;;;5013721;28;20198;-74
2022/02/05 04:04:32;;;;;;;0.90;0.85;;;2.10;99.90;;;;;;5013518;28;20178;-75
2022/02/05 04:06:58;;;;;;;1.07;1.00;;;2.10;99.90;;;;;;5014731;28;20253;-74
2022/02/05 04:09:33;;;;;;;2.83;1.37;;;2.10;99.90;;;;;;5015837;28;20702;-74
2022/02/05 04:17:27;;;;;;;1.40;0.75;;;2.10;99.90;;;;;;5017254;28;20234;-76
2022/02/05 04:19:52;;;;;;;0.83;0.73;;;2.10;99.90;;;;;;5017479;28;20183;-74
2022/02/05 04:22:18;;;;;;;2.87;2.67;;;2.10;99.90;;;;;;5015907;28;20230;-74
2022/02/05 04:24:44;;;;;;;1.43;1.33;;;2.20;99.90;;;;;;5017282;28;20209;-74
2022/02/05 04:27:10;;;;;;;1.03;1.03;;;2.10;99.90;;;;;;5017207;28;20568;-74
2022/02/05 04:29:36;;;;;;;1.80;1.30;;;2.20;99.90;;;;;;5016708;28;20190;-75
2022/02/05 04:32:03;;;;;;;1.23;1.13;;;2.30;99.90;;;;;;5016925;28;20406;-74
2022/02/05 04:34:29;;;;;;;0.90;0.90;;;2.40;99.90;;;;;;5017054;28;20577;-74
2022/02/05 04:36:55;;;;;;;1.97;1.43;;;2.50;99.90;;;;;;5017127;28;20174;-74
2022/02/05 04:39:21;;;;;;;0.95;0.95;;;2.60;99.90;;;;;;5016724;28;20189;-74
2022/02/05 04:42:03;;;;;;;3.88;3.13;;;2.70;99.90;;;;;;5016673;28;20211;-74
2022/02/05 04:51:04;;;;;;;1.60;1.35;;;3.10;99.90;;;;;;4956234;29;20209;-73
2022/02/05 04:53:33;;;;;;;1.40;1.33;;;3.10;99.90;;;;;;4991799;28;20274;-73
2022/02/05 04:56:22;;;;;;;1.30;0.90;;;3.10;99.90;;;;;;4995137;28;20167;-74
2022/02/05 04:59:04;;;;;;;3.08;1.67;;;3.10;99.90;;;;;;4994552;28;20226;-74
2022/02/05 05:09:22;;;;;;;1.05;1.05;;;3.10;99.90;;;;;;4994429;28;20198;-74
2022/02/05 05:19:46;;;;;;;1.25;1.23;;;3.30;99.90;;;;;;5015564;28;20206;-74
2022/02/05 05:22:14;;;;;;;0.95;0.95;;;3.30;99.90;;;;;;5015864;28;20206;-74
2022/02/05 05:24:41;;;;;;;3.33;1.83;;;3.40;99.90;;;;;;5016254;28;20190;-74
2022/02/05 05:27:06;;;;;;;6.05;1.38;;;3.40;99.90;;;;;;5016216;28;20175;-75
2022/02/05 05:29:32;;;;;;;1.07;1.07;;;3.50;99.90;;;;;;5015542;28;20197;-74
2022/02/05 05:31:58;;;;;;;2.70;0.98;;;3.50;99.90;;;;;;5014616;28;20258;-75
2022/02/05 05:34:24;;;;;;;4.43;1.93;;;3.50;99.90;;;;;;5016557;28;20260;-73
2022/02/05 05:36:49;;;;;;;1.97;1.87;;;3.60;99.90;;;;;;5016118;28;20175;-73
2022/02/05 05:39:15;;;;;;;1.10;1.10;;;3.60;99.90;;;;;;5015539;28;20187;-74
2022/02/05 05:41:42;;;;;;;4.00;1.53;;;3.60;99.90;;;;;;5015774;28;20202;-73
2022/02/05 05:46:43;;;;;;;2.25;1.10;;;3.70;99.90;;;;;;5015657;28;20617;-74
2022/02/05 05:49:45;;;;;;;0.95;0.90;;;3.70;99.90;;;;;;5015248;28;20553;-73
2022/02/05 05:51:55;;;;;;;1.23;1.02;;;3.70;99.90;;;;;;5015074;28;20199;-73
2022/02/05 05:54:20;;;;;;;1.63;1.53;;;3.80;99.90;;;;;;5015675;28;20221;-73
2022/02/05 05:56:46;;;;;;;1.03;0.80;;;3.80;99.90;;;;;;5014625;28;20190;-74
2022/02/05 05:59:13;;;;;;;1.45;1.45;;;3.80;99.90;;;;;;5015696;28;20193;-73
2022/02/05 06:01:39;;;;;;;1.30;1.20;;;3.80;99.90;;;;;;5015548;28;20198;-74
2022/02/05 06:04:05;;;;;;;1.30;1.20;;;3.80;99.90;;;;;;5015389;28;20171;-73
2022/02/05 06:06:30;;;;;;;2.30;2.07;;;3.80;99.90;;;;;;5015467;28;20167;-74
2022/02/05 06:08:56;;;;;;;0.90;0.90;;;3.80;99.90;;;;;;5014761;28;20418;-74
2022/02/05 06:11:21;;;;;;;0.80;0.80;;;3.90;99.90;;;;;;5015374;28;20305;-74
2022/02/05 06:13:47;;;;;;;0.90;0.70;;;3.90;99.90;;;;;;5015211;28;20202;-73
2022/02/05 06:16:16;;;;;;;1.50;1.40;;;3.90;99.90;;;;;;5015281;28;20174;-73
2022/02/05 06:18:42;;;;;;;0.95;0.95;;;4.00;99.90;;;;;;5014837;28;20171;-74
2022/02/05 06:21:08;;;;;;;1.77;1.10;;;3.90;99.90;;;;;;5014996;28;20202;-74
2022/02/05 06:23:34;;;;;;;1.47;1.37;;;4.00;99.90;;;;;;5015248;28;20182;-74
2022/02/05 06:25:59;;;;;;;2.10;1.17;;;4.00;99.90;;;;;;5015211;28;20249;-74
2022/02/05 06:28:25;;;;;;;1.23;1.20;;;4.00;99.90;;;;;;5014714;28;20394;-75
2022/02/05 06:30:51;;;;;;;0.97;0.97;;;4.00;99.90;;;;;;5014837;28;20245;-74
2022/02/05 06:33:17;;;;;;;1.00;1.00;;;4.00;99.90;;;;;;5014526;28;20460;-74
2022/02/05 06:35:43;;;;;;;5.47;1.60;;;4.10;99.90;;;;;;5014591;28;20717;-74
2022/02/05 06:38:09;;;;;;;1.20;1.10;;;4.10;99.90;;;;;;5014475;28;20182;-74
2022/02/05 06:40:35;;;;;;;1.63;1.53;;;4.00;99.90;;;;;;5014470;28;20583;-75
2022/02/05 06:43:00;;;;;;;1.40;1.30;;;4.10;99.90;;;;;;5013335;28;20237;-74
2022/02/05 06:45:26;;;;;;;1.60;1.50;;;4.10;99.90;;;;;;5014886;28;20242;-74
2022/02/05 06:47:51;;;;;;;1.30;0.97;;;4.10;99.90;;;;;;5014547;28;20534;-75
2022/02/05 06:50:17;;;;;;;1.93;1.43;;;4.10;99.90;;;;;;5014505;28;20187;-75
2022/02/05 06:52:44;;;;;;;1.10;1.00;;;4.10;99.90;;;;;;5014569;28;20178;-75
2022/02/05 06:55:10;;;;;;;1.92;1.27;;;4.10;99.90;;;;;;5014377;28;20171;-75
2022/02/05 06:57:37;;;;;;;1.40;1.30;;;4.10;99.90;;;;;;5014114;28;20151;-77
2022/02/05 07:00:06;;;;;;;4.07;1.73;;;4.20;99.90;;;;;;5014211;28;20274;-75
2022/02/05 07:02:32;;;;;;;1.42;1.33;;;4.10;99.90;;;;;;5014268;28;20238;-75
2022/02/05 07:04:58;;;;;;;3.03;1.63;;;4.20;99.90;;;;;;5014743;28;20199;-72
2022/02/05 07:07:24;;;;;;;1.50;1.40;;;4.20;99.90;;;;;;5014423;28;20420;-74
2022/02/05 07:09:49;;;;;;;1.13;0.87;;;4.20;99.90;;;;;;5013758;28;20261;-74
2022/02/05 07:12:15;;;;;;;1.33;1.27;;;4.20;99.90;;;;;;5014629;28;20174;-73
2022/02/05 07:14:55;;;;;;;1.03;1.00;;;4.20;99.90;;;;;;5014397;28;20225;-73
2022/02/05 07:17:32;;;;;;;0.63;0.63;;;4.30;99.90;;;;;;5014963;28;20166;-74
2022/02/05 07:20:14;;;;;;;1.38;1.27;;;4.30;99.90;;;;;;5013947;28;20183;-74
2022/02/05 07:30:51;;;;;;;1.98;1.27;;;4.40;99.90;;;;;;5014235;28;20281;-73
2022/02/05 07:33:17;;;;;;;0.93;0.93;;;4.40;99.90;;;;;;5013819;28;20170;-73
2022/02/05 07:35:43;;;;;;;2.63;1.23;;;4.40;99.90;;;;;;5013868;28;20198;-73
2022/02/05 07:38:08;;;;;;;2.20;0.90;;;4.40;99.90;;;;;;5013441;28;20216;-73
2022/02/05 07:40:35;;;;;;;1.70;1.60;;;4.50;99.90;;;;;;5013785;28;20195;-73
2022/02/05 07:43:00;;;;;;;1.25;1.15;;;4.50;99.90;;;;;;5013811;28;20173;-75
2022/02/05 07:45:26;;;;;;;1.87;1.30;;;4.50;99.90;;;;;;5013434;28;20163;-73
2022/02/05 07:47:52;;;;;;;2.67;1.30;;;4.60;99.90;;;;;;5013369;28;20175;-73
2022/02/05 07:50:18;;;;;;;1.33;1.23;;;4.70;99.90;;;;;;5013541;28;20396;-74
2022/02/05 07:52:44;;;;;;;1.97;1.77;;;4.70;99.90;;;;;;5013857;28;20178;-73
2022/02/05 07:55:10;;;;;;;2.43;2.00;;;4.80;99.90;;;;;;5013764;28;20448;-73
2022/02/05 07:57:35;;;;;;;3.13;1.30;;;4.80;99.90;;;;;;5013515;28;20226;-73
2022/02/05 08:00:03;;;;;;;1.30;1.20;;;4.90;99.90;;;;;;5013412;28;20200;-73
2022/02/05 08:02:29;;;;;;;6.68;1.55;;;5.10;99.90;;;;;;5013600;28;20210;-73
2022/02/05 08:04:54;;;;;;;7.73;1.10;;;5.30;99.90;;;;;;5012178;28;20171;-73
2022/02/05 08:07:20;;;;;;;2.97;2.13;;;5.40;99.90;;;;;;5013528;28;20163;-74
2022/02/05 08:12:14;;;;;;;1.60;1.10;;;5.60;99.90;;;;;;5013654;28;20176;-74
2022/02/05 08:14:45;;;;;;;1.35;1.15;;;5.80;99.90;;;;;;5013587;28;20173;-75
2022/02/05 08:17:31;;;;;;;1.13;0.95;;;5.80;99.90;;;;;;5013270;28;20244;-74
2022/02/05 08:19:57;;;;;;;1.15;1.05;;;5.90;99.90;;;;;;5013197;28;20190;-75
2022/02/05 08:22:23;;;;;;;1.57;1.13;;;6.00;99.90;;;;;;5013302;28;20668;-76
2022/02/05 08:24:49;;;;;;;1.67;0.90;;;6.10;99.90;;;;;;5013475;28;20170;-75
2022/02/05 08:27:16;;;;;;;6.55;1.42;;;6.20;99.90;;;;;;5013300;28;20198;-75
2022/02/05 08:29:57;;;;;;;2.67;1.23;;;6.50;99.90;;;;;;5012699;28;20191;-74
2022/02/05 08:32:25;;;;;;;2.00;1.30;;;6.60;99.90;;;;;;5013343;28;20225;-74
2022/02/05 08:34:52;;;;;;;1.38;1.27;;;6.90;99.90;;;;;;5013160;28;20174;-74
2022/02/05 08:37:18;;;;;;;1.05;1.05;;;7.50;99.90;;;;;;5011615;28;20265;-75
2022/02/05 08:39:44;;;;;;;0.87;0.87;;;8.50;99.90;;;;;;5012622;28;20279;-74
2022/02/05 08:42:10;;;;;;;1.60;1.30;;;9.60;99.90;;;;;;5013154;28;20452;-74
2022/02/05 08:44:36;;;;;;;2.70;1.17;;;10.40;99.90;;;;;;5013102;28;20412;-75
2022/02/05 08:47:02;;;;;;;1.43;1.33;;;10.80;99.60;;;;;;5013260;28;20471;-75
2022/02/05 08:49:29;;;;;;;2.83;1.13;;;10.80;99.60;;;;;;5012489;28;20194;-74
2022/02/05 08:52:01;;;;;;;1.23;1.20;;;11.20;98.80;;;;;;5028011;28;21022;-75
2022/02/05 08:54:29;;;;;;;7.37;1.57;;;11.90;97.70;;;;;;5011763;28;20419;-74
2022/02/05 08:56:55;;;;;;;1.43;1.20;;;12.50;96.10;;;;;;5013347;28;20934;-74
2022/02/05 08:59:23;;;;;;;3.80;1.20;;;13.10;96.40;;;;;;5031087;28;20523;-75
2022/02/05 09:02:02;;;;;;;1.40;1.40;;;13.60;95.10;;;;;;5016568;28;20453;-74
2022/02/05 09:04:36;;;;;;;1.07;1.07;;;14.30;94.00;;;;;;5016265;28;20492;-74
2022/02/05 09:07:02;;;;;;;0.87;0.87;;;14.80;92.20;;;;;;5016188;28;20399;-75
2022/02/05 09:12:16;;;;;;;5.87;1.40;;;15.20;92.40;;;;;;5016261;28;20199;-74
2022/02/05 09:14:45;;;;;;;3.07;1.50;;;15.70;90.90;;;;;;5016125;28;20171;-74
2022/02/05 09:17:12;;;;;;;1.40;1.30;;;16.00;87.80;;;;;;5016052;28;20802;-74
2022/02/05 09:19:38;;;;;;;1.07;1.07;;;15.60;84.00;;;;;;5015653;28;20447;-75
2022/02/05 09:22:06;;;;;;;1.53;1.13;;;14.90;86.20;;;;;;5016072;28;20436;-74
2022/02/05 09:24:32;;;;;;;1.17;1.00;;;14.70;90.50;;;;;;5015966;28;20456;-74
2022/02/05 09:27:04;;;;;;;1.60;1.33;;;14.80;87.50;;;;;;5016523;28;20483;-74
2022/02/05 09:29:34;;;;;;;0.80;0.80;;;14.80;86.90;;;;;;5014169;28;20445;-75
2022/02/05 09:31:59;;;;;;;3.07;2.13;;;15.00;88.40;;;;;;5016237;28;20395;-75
2022/02/05 09:34:25;;;;;;;1.30;1.20;;;14.90;86.80;;;;;;5016227;28;20395;-74
2022/02/05 09:36:51;;;;;;;1.60;1.50;;;15.00;88.60;;;;;;5015906;28;20186;-73
2022/02/05 09:39:17;;;;;;;1.63;1.20;;;14.80;86.10;;;;;;5016044;28;20214;-74
2022/02/05 09:41:44;;;;;;;1.10;1.10;;;14.50;86.90;;;;;;5015848;28;20199;-74
2022/02/05 09:44:11;;;;;;;1.20;1.10;;;14.30;87.50;;;;;;5015430;28;20377;-73
2022/02/05 09:46:38;;;;;;;1.33;1.23;;;14.40;89.80;;;;;;5015541;28;20439;-73
2022/02/05 09:49:04;;;;;;;2.03;1.67;;;14.60;90.00;;;;;;5013758;28;20439;-74
2022/02/05 09:51:36;;;;;;;2.60;1.30;;;14.70;89.50;;;;;;5014003;28;20446;-73
2022/02/05 09:54:04;;;;;;;4.67;1.07;;;14.90;87.90;;;;;;5015398;28;20414;-73
2022/02/05 09:56:32;;;;;;;1.83;1.57;;;14.50;86.50;;;;;;5014936;28;20412;-75
2022/02/05 09:58:59;;;;;;;1.10;1.10;;;13.90;87.80;;;;;;5014737;28;20499;-74
2022/02/05 10:01:31;;;;;;;2.20;1.17;;;13.40;89.50;;;;;;5015282;28;20427;-75
2022/02/05 10:03:57;;;;;;;0.80;0.80;;;12.70;90.80;;;;;;5015140;28;20390;-74
2022/02/05 10:06:34;;;;;;;0.70;0.70;;;12.30;91.00;;;;;;5015189;28;20405;-73
2022/02/05 10:09:10;;;;;;;0.77;0.70;;;12.30;90.40;;;;;;5013154;28;20431;-74
2022/02/05 10:11:50;;;;;;;1.00;0.90;;;12.10;90.40;;;;;;5014982;28;20380;-74
2022/02/05 10:14:26;;;;;;;1.40;1.30;;;11.90;91.60;;;;;;5014803;28;20405;-73
2022/02/05 10:16:57;;;;;;;1.77;0.90;;;12.00;92.10;;;;;;5014627;28;20512;-71
2022/02/05 10:19:25;;;;;;;1.57;0.90;;;11.90;92.20;;;;;;5014335;28;20423;-73
2022/02/05 10:22:02;;;;;;;2.20;1.20;;;12.20;92.60;;;;;;5014715;28;20511;-72
2022/02/05 10:24:29;;;;;;;1.90;1.23;;;12.90;92.50;;;;;;5015125;28;20770;-73
2022/02/05 10:26:55;;;;;;;1.53;0.70;;;13.30;90.20;;;;;;5014858;28;20448;-72
2022/02/05 10:29:21;;;;;;;2.33;0.83;;;13.50;89.80;;;;;;5014487;28;20868;-75
2022/02/05 10:32:22;;;;;;;0.50;0.50;;;13.80;88.00;;;;;;5014594;28;20405;-74
2022/02/05 10:37:45;;;;;;;0.77;0.77;;;13.40;88.50;;;;;;5014419;28;20391;-75
2022/02/05 10:40:14;;;;;;;1.47;0.70;;;13.50;90.10;;;;;;5014387;28;20783;-73
2022/02/05 10:43:03;;;;;;;1.43;1.07;;;13.60;88.30;;;;;;5014371;28;20758;-72
2022/02/05 10:45:39;;;;;;;1.17;0.67;;;13.30;87.40;;;;;;5014361;28;20676;-72
2022/02/05 10:48:05;;;;;;;1.10;1.00;;;13.70;88.90;;;;;;5012887;28;20785;-72
2022/02/05 10:50:35;;;;;;;1.00;0.90;;;13.40;85.80;;;;;;5013993;28;20489;-72
2022/02/05 10:53:06;;;;;;;1.77;1.00;;;12.90;87.50;;;;;;5013959;28;20371;-73
2022/02/05 10:55:43;;;;;;;1.10;1.00;;;12.50;87.30;;;;;;5012673;28;20875;-74
2022/02/05 11:05:54;;;;;;;1.33;0.80;;;12.10;90.60;;;;;;5014241;28;20174;-72
2022/02/05 11:08:21;;;;;;;0.80;0.70;;;12.10;90.20;;;;;;5012498;28;20454;-73
2022/02/05 11:18:57;;;;;;;2.00;1.13;;;13.70;85.80;;;;;;5022458;28;20796;-75
2022/02/05 11:21:24;;;;;;;1.13;0.60;;;14.10;88.90;;;;;;5013241;28;20469;-74
2022/02/05 11:23:57;;;;;;;1.23;0.80;;;14.50;86.50;;;;;;5013884;28;20472;-73
2022/02/05 11:26:24;;;;;;;0.93;0.93;;;14.70;83.70;;;;;;5014094;28;20470;-73
2022/02/05 11:28:52;;;;;;;0.77;0.77;;;14.40;82.10;;;;;;5012110;28;20792;-73
2022/02/05 11:31:34;;;;;;;0.83;0.77;;;14.10;83.80;;;;;;5029140;28;20968;-74
2022/02/05 11:34:31;;;;;;;1.17;1.03;;;13.60;85.70;;;;;;5013708;28;20403;-74
2022/02/05 11:37:02;;;;;;;1.27;0.63;;;13.20;85.40;;;;;;5014338;28;20386;-72
2022/02/05 11:39:28;;;;;;;2.70;1.63;;;12.70;85.70;;;;;;5013442;28;20926;-73
2022/02/05 11:41:55;;;;;;;0.70;0.60;;;12.30;85.00;;;;;;5013375;28;20491;-74
2022/02/05 11:44:39;;;;;;;0.90;0.70;;;11.90;85.70;;;;;;5013661;28;20206;-74
2022/02/05 11:47:07;;;;;;;0.90;0.77;;;11.50;87.00;;;;;;5013554;28;20403;-71
2022/02/05 11:49:51;;;;;;;0.70;0.70;;;11.30;88.20;;;;;;5012960;28;20412;-73
2022/02/05 11:52:35;;;;;;;0.90;0.80;;;11.00;89.70;;;;;;5013391;28;20427;-71
2022/02/05 11:55:08;;;;;;;2.20;1.60;;;10.80;89.90;;;;;;5013611;28;20389;-71
2022/02/05 11:57:46;;;;;;;2.13;0.60;;;10.80;89.50;;;;;;5013434;28;20992;-71
2022/02/05 12:00:22;;;;;;;1.20;1.20;;;10.90;89.90;;;;;;5013188;28;20410;-73
2022/02/05 12:03:01;;;;;;;3.30;1.13;;;10.90;89.00;;;;;;5013286;28;20433;-73
2022/02/05 12:05:36;;;;;;;1.07;0.97;;;10.80;89.60;;;;;;5013734;28;20378;-72
2022/02/05 12:08:22;;;;;;;0.70;0.70;;;10.70;89.90;;;;;;5012941;28;20889;-75
2022/02/05 12:10:51;;;;;;;0.65;0.50;;;10.50;90.00;;;;;;5013301;28;20433;-73
2022/02/05 12:13:24;;;;;;;0.60;0.60;;;10.50;90.30;;;;;;5013376;28;20159;-73
2022/02/05 12:15:56;;;;;;;0.70;0.60;;;10.50;89.20;;;;;;5013239;28;20222;-74
2022/02/05 12:18:30;;;;;;;0.63;0.63;;;10.40;90.00;;;;;;5012853;28;20179;-72
2022/02/05 12:26:20;;;;;;;5.07;0.68;;;10.20;89.80;;;;;;5013164;28;20171;-74
2022/02/05 12:28:50;;;;;;;0.50;0.50;;;10.20;89.40;;;;;;5012619;28;20258;-71
2022/02/05 12:31:20;;;;;;;0.70;0.70;;;10.10;90.50;;;;;;5013214;28;20167;-70
2022/02/05 12:34:01;;;;;;;0.57;0.50;;;10.10;90.70;;;;;;5015146;28;20630;-73
2022/02/05 12:36:49;;;;;;;0.60;0.50;;;10.00;90.00;;;;;;5016780;28;20174;-73
2022/02/05 12:39:35;;;;;;;0.93;0.65;;;9.90;91.30;;;;;;5016408;28;20186;-71
2022/02/05 12:42:13;;;;;;;0.93;0.70;;;9.80;91.50;;;;;;5016481;28;20592;-73
2022/02/05 12:44:40;;;;;;;2.40;0.47;;;9.90;91.80;;;;;;5016877;28;20195;-73
2022/02/05 12:47:13;;;;;;;1.52;0.75;;;9.90;91.50;;;;;;5017296;28;20193;-73
2022/02/05 12:49:54;;;;;;;1.85;0.70;;;9.90;91.60;;;;;;5016292;28;20270;-75
2022/02/05 12:52:25;;;;;;;0.50;0.50;;;9.90;91.80;;;;;;5015364;28;20260;-73
2022/02/05 12:54:56;;;;;;;5.00;0.50;;;9.80;91.50;;;;;;5016622;28;20282;-73
2022/02/05 12:57:21;;;;;;;1.40;1.30;;;9.70;91.30;;;;;;5015981;28;20189;-72
2022/02/05 12:59:47;;;;;;;0.60;0.60;;;9.70;91.60;;;;;;5016170;28;20190;-73
2022/02/05 13:02:15;;;;;;;0.60;0.50;;;9.70;91.70;;;;;;5015103;28;20297;-72
2022/02/05 13:04:52;;;;;;;0.40;0.40;;;9.70;91.90;;;;;;5015258;28;20402;-73
2022/02/05 13:07:23;;;;;;;7.53;0.73;;;9.70;91.80;;;;;;5014965;28;20209;-74
2022/02/05 13:10:04;;;;;;;3.53;0.80;;;9.80;91.50;;;;;;5016151;28;20309;-71
2022/02/05 13:12:32;;;;;;;1.23;0.52;;;9.70;91.30;;;;;;5016119;28;20166;-73
2022/02/05 13:15:04;;;;;;;0.93;0.93;;;9.80;91.70;;;;;;5016674;28;20170;-72
2022/02/05 13:34:25;;;;;;;0.40;0.40;;;9.60;91.70;;;;;;5016025;28;20182;-75
2022/02/05 13:42:09;;;;;;;0.80;0.70;;;9.60;92.50;;;;;;5015712;28;20190;-73
2022/02/05 13:44:42;;;;;;;0.40;0.30;;;9.60;92.10;;;;;;5015419;28;20578;-74
2022/02/05 13:47:15;;;;;;;0.60;0.60;;;9.60;91.90;;;;;;5016042;28;20167;-72
2022/02/05 13:49:41;;;;;;;3.75;1.05;;;9.50;91.80;;;;;;5015306;28;20202;-73
2022/02/05 13:52:14;;;;;;;5.55;0.82;;;9.50;91.50;;;;;;5015497;28;20190;-72
2022/02/05 13:54:42;;;;;;;1.65;0.60;;;9.50;91.30;;;;;;5014626;28;20338;-72
2022/02/05 13:57:11;;;;;;;2.22;0.82;;;9.60;91.70;;;;;;5015947;28;20647;-72
2022/02/05 13:59:37;;;;;;;0.70;0.70;;;9.60;91.70;;;;;;5014503;28;20583;-74
2022/02/05 14:02:13;;;;;;;0.50;0.50;;;9.60;91.80;;;;;;5017935;28;20274;-73
2022/02/05 14:04:39;;;;;;;1.13;0.60;;;9.50;92.00;;;;;;5018336;28;20401;-72
2022/02/05 14:07:04;;;;;;;1.83;0.57;;;9.40;92.60;;;;;;5014562;28;20522;-71
2022/02/05 14:09:34;;;;;;;0.70;0.57;;;9.30;92.50;;;;;;5015476;28;20268;-70
2022/02/05 14:12:16;;;;;;;0.63;0.50;;;9.20;92.50;;;;;;5016071;28;20173;-72
2022/02/05 14:14:43;;;;;;;0.60;0.60;;;9.10;92.80;;;;;;5014117;28;20204;-73
2022/02/05 14:17:19;;;;;;;1.85;0.70;;;9.10;93.00;;;;;;5015193;28;20733;-70
2022/02/05 14:19:47;;;;;;;0.40;0.40;;;9.00;93.00;;;;;;5014767;28;20248;-73
2022/02/05 14:22:20;;;;;;;0.70;0.70;;;8.90;92.90;;;;;;5015121;28;20333;-72
2022/02/05 14:25:06;;;;;;;0.50;0.50;;;9.00;93.50;;;;;;5014065;28;20652;-72
2022/02/05 14:27:33;;;;;;;1.55;0.73;;;9.00;93.80;;;;;;5015572;28;20194;-73
2022/02/05 14:30:09;;;;;;;0.63;0.63;;;9.00;93.60;;;;;;5014484;28;20186;-71
2022/02/05 14:32:50;;;;;;;0.60;0.60;;;9.10;93.70;;;;;;5014807;28;20170;-73
2022/02/05 14:40:45;;;;;;;0.68;0.68;;;9.30;93.10;;;;;;5014697;28;20201;-75
2022/02/05 14:43:12;;;;;;;0.57;0.57;;;9.20;92.80;;;;;;5014442;28;20182;-72
2022/02/05 14:45:38;;;;;;;2.38;1.15;;;9.20;93.20;;;;;;5014590;28;20206;-73
2022/02/05 14:48:04;;;;;;;0.70;0.70;;;9.10;92.80;;;;;;5014241;28;20206;-74
2022/02/05 14:50:29;;;;;;;0.98;0.65;;;9.00;92.40;;;;;;5014492;28;20210;-72
2022/02/05 14:52:55;;;;;;;0.53;0.53;;;8.90;92.50;;;;;;5015621;28;20175;-72
2022/02/05 14:55:21;;;;;;;0.77;0.73;;;8.80;92.80;;;;;;5014475;28;20205;-73
2022/02/05 14:57:48;;;;;;;0.50;0.40;;;8.70;92.60;;;;;;5014821;28;20182;-73
2022/02/05 15:00:15;;;;;;;1.35;0.50;;;8.60;92.90;;;;;;5015042;28;20190;-71
2022/02/05 15:02:40;;;;;;;1.67;0.77;;;8.50;93.50;;;;;;5015436;28;20221;-72
2022/02/05 15:05:14;;;;;;;0.90;0.67;;;8.40;93.70;;;;;;5015419;28;20170;-73
2022/02/05 15:07:40;;;;;;;1.27;0.70;;;8.40;93.50;;;;;;5014232;28;20162;-72
2022/02/05 15:10:09;;;;;;;0.70;0.70;;;8.40;93.20;;;;;;5014294;28;20273;-72
2022/02/05 15:12:36;;;;;;;1.50;0.70;;;8.30;93.00;;;;;;5013060;28;20673;-73
2022/02/05 15:15:05;;;;;;;0.88;0.68;;;8.30;92.80;;;;;;5014611;28;20653;-72
2022/02/05 15:17:34;;;;;;;0.50;0.50;;;8.30;92.60;;;;;;5014025;28;20190;-72
2022/02/05 15:19:59;;;;;;;1.40;0.57;;;8.30;92.80;;;;;;5014172;28;20218;-73
2022/02/05 15:22:25;;;;;;;3.50;0.97;;;8.20;92.70;;;;;;5014524;28;20253;-73
2022/02/05 15:24:51;;;;;;;0.40;0.40;;;8.20;92.90;;;;;;5014323;28;20202;-73
2022/02/05 15:27:16;;;;;;;0.50;0.50;;;8.20;93.00;;;;;;5013121;28;20232;-74
2022/02/05 15:29:42;;;;;;;2.63;1.47;;;8.20;93.00;;;;;;5014148;28;20186;-71
2022/02/05 15:32:07;;;;;;;0.47;0.47;;;8.20;93.20;;;;;;5014000;28;20174;-73
2022/02/05 15:34:33;;;;;;;2.63;0.93;;;8.20;93.20;;;;;;5013987;28;20181;-73
2022/02/05 15:37:07;;;;;;;1.13;0.90;;;8.20;93.60;;;;;;5012501;28;20216;-73
2022/02/05 15:40:18;;;;;;;1.15;0.90;;;8.20;93.10;;;;;;5013740;28;20552;-73
2022/02/05 15:45:08;;;;;;;0.73;0.73;;;8.20;93.30;;;;;;5013845;28;20169;-73
2022/02/05 15:47:34;;;;;;;0.67;0.63;;;8.10;93.20;;;;;;5013737;28;20585;-72
2022/02/05 15:49:59;;;;;;;2.10;0.70;;;8.00;93.40;;;;;;5013835;28;20225;-74
2022/02/05 15:52:27;;;;;;;0.47;0.47;;;8.00;93.60;;;;;;5014460;28;20193;-73
2022/02/05 15:54:54;;;;;;;1.20;0.60;;;7.90;93.60;;;;;;5013833;28;20170;-73
2022/02/05 15:57:33;;;;;;;0.68;0.68;;;7.90;93.80;;;;;;5014039;28;20625;-73
2022/02/05 16:02:24;;;;;;;0.80;0.80;;;7.60;94.40;;;;;;5013728;28;20206;-74
2022/02/05 16:04:50;;;;;;;0.70;0.70;;;7.50;94.40;;;;;;5013524;28;20655;-73
2022/02/05 16:07:16;;;;;;;1.13;1.13;;;7.40;94.00;;;;;;5014792;28;20177;-75
2022/02/05 16:09:43;;;;;;;1.13;0.50;;;7.40;94.70;;;;;;5017099;28;20640;-73
2022/02/05 16:12:10;;;;;;;0.73;0.60;;;7.30;94.60;;;;;;5018140;28;20173;-73
2022/02/05 16:14:36;;;;;;;0.40;0.40;;;7.20;94.80;;;;;;5017741;28;20196;-74